createdAt,value
2024-05-09T00:00:30.778Z,52.79
2024-05-09T00:01:27.417Z,51.50
2024-05-09T00:02:25.479Z,53.77
2024-05-09T00:03:25.417Z,55.78
2024-05-09T00:04:25.418Z,55.31
2024-05-09T00:05:25.497Z,53.26
2024-05-09T00:06:25.334Z,54.44
2024-05-09T00:07:25.324Z,52.61
2024-05-09T00:08:25.343Z,54.22
2024-05-09T00:09:25.330Z,53.78
2024-05-09T00:10:33.213Z,50.73
2024-05-09T00:11:27.414Z,51.67
2024-05-09T00:12:25.438Z,54.69
2024-05-09T00:13:25.296Z,53.11
2024-05-09T00:14:25.442Z,51.40
2024-05-09T00:15:25.272Z,53.21
2024-05-09T00:16:25.260Z,50.19
2024-05-09T00:17:25.397Z,54.32
2024-05-09T00:18:25.412Z,54.26
2024-05-09T00:19:25.325Z,53.36
2024-05-09T00:20:33.219Z,50.13
2024-05-09T00:21:26.237Z,48.01
2024-05-09T00:22:25.224Z,52.64
2024-05-09T00:23:25.234Z,50.19
2024-05-09T00:24:25.199Z,53.82
2024-05-09T00:25:25.209Z,52.32
2024-05-09T00:26:25.291Z,51.00
2024-05-09T00:27:25.192Z,50.17
2024-05-09T00:28:25.182Z,50.93
2024-05-09T00:29:25.299Z,48.14
2024-05-09T00:30:33.214Z,51.03
2024-05-09T00:31:26.162Z,51.43
2024-05-09T00:32:25.281Z,52.47
2024-05-09T00:33:25.346Z,49.30
2024-05-09T00:34:25.250Z,50.48
2024-05-09T00:35:25.300Z,50.63
2024-05-09T00:36:25.122Z,52.79
2024-05-09T00:37:25.109Z,49.68
2024-05-09T00:38:25.129Z,51.84
2024-05-09T00:39:25.087Z,53.29
2024-05-09T00:40:35.101Z,52.24
2024-05-09T00:41:27.149Z,46.98
2024-05-09T00:42:25.083Z,48.14
2024-05-09T00:43:25.069Z,50.20
2024-05-09T00:44:25.193Z,50.55
2024-05-09T00:45:25.050Z,51.49
2024-05-09T00:46:25.076Z,51.79
2024-05-09T00:47:25.344Z,51.71
2024-05-09T00:48:25.163Z,50.09
2024-05-09T00:49:25.218Z,51.77
2024-05-09T00:50:33.816Z,54.07
2024-05-09T00:51:27.034Z,50.38
2024-05-09T00:52:25.026Z,50.50
2024-05-09T00:53:25.064Z,51.57
2024-05-09T00:54:24.985Z,51.30
2024-05-09T00:55:24.987Z,51.06
2024-05-09T00:56:25.106Z,51.56
2024-05-09T00:57:24.962Z,53.27
2024-05-09T00:58:24.981Z,48.96
2024-05-09T00:59:25.233Z,51.37
2024-05-09T01:00:31.661Z,51.94
2024-05-09T01:01:27.032Z,53.36
2024-05-09T01:02:25.072Z,50.23
2024-05-09T01:03:25.107Z,54.40
2024-05-09T01:04:24.927Z,51.77
2024-05-09T01:05:24.927Z,52.11
2024-05-09T01:06:24.906Z,50.08
2024-05-09T01:07:24.900Z,50.75
2024-05-09T01:08:25.056Z,49.71
2024-05-09T01:09:24.884Z,53.22
2024-05-09T01:10:32.228Z,50.09
2024-05-09T01:11:25.920Z,53.86
2024-05-09T01:12:25.004Z,53.37
2024-05-09T01:13:24.859Z,55.02
2024-05-09T01:14:24.901Z,53.64
2024-05-09T01:15:24.841Z,52.54
2024-05-09T01:16:24.836Z,49.40
2024-05-09T01:17:25.019Z,52.77
2024-05-09T01:18:24.992Z,54.21
2024-05-09T01:19:24.976Z,58.17
2024-05-09T01:20:36.495Z,56.01
2024-05-09T01:21:26.817Z,56.01
2024-05-09T01:22:24.798Z,54.43
2024-05-09T01:23:24.818Z,53.68
2024-05-09T01:24:24.834Z,50.03
2024-05-09T01:25:24.762Z,49.47
2024-05-09T01:26:24.876Z,53.18
2024-05-09T01:27:24.767Z,51.74
2024-05-09T01:28:24.761Z,53.10
2024-05-09T01:29:24.848Z,52.60
2024-05-09T01:30:31.865Z,51.54
2024-05-09T01:31:25.729Z,48.19
2024-05-09T01:32:24.810Z,51.53
2024-05-09T01:33:24.855Z,53.46
2024-05-09T01:34:24.732Z,51.80
2024-05-09T01:35:24.794Z,50.57
2024-05-09T01:36:24.910Z,49.74
2024-05-09T01:37:24.705Z,54.78
2024-05-09T01:38:24.717Z,54.65
2024-05-09T01:39:24.673Z,55.21
2024-05-09T01:40:33.605Z,55.31
2024-05-09T01:41:26.718Z,51.25
2024-05-09T01:42:25.475Z,51.05
2024-05-09T01:43:24.653Z,50.20
2024-05-09T01:44:24.731Z,49.17
2024-05-09T01:45:24.897Z,50.90
2024-05-09T01:46:24.639Z,50.55
2024-05-09T01:47:24.724Z,52.28
2024-05-09T01:48:24.840Z,53.41
2024-05-09T01:49:24.716Z,51.21
2024-05-09T01:50:35.852Z,51.10
2024-05-09T01:51:26.600Z,54.51
2024-05-09T01:52:24.599Z,54.12
2024-05-09T01:53:24.644Z,52.63
2024-05-09T01:54:24.582Z,53.36
2024-05-09T01:55:24.597Z,55.64
2024-05-09T01:56:24.624Z,51.20
2024-05-09T01:57:24.575Z,50.07
2024-05-09T01:58:24.574Z,50.65
2024-05-09T01:59:24.680Z,53.02
2024-05-09T02:00:33.905Z,52.14
2024-05-09T02:01:26.541Z,53.49
2024-05-09T02:02:24.563Z,51.96
2024-05-09T02:03:24.615Z,52.96
2024-05-09T02:04:24.669Z,51.98
2024-05-09T02:05:24.594Z,49.53
2024-05-09T02:06:24.502Z,49.85
2024-05-09T02:07:24.491Z,49.13
2024-05-09T02:08:24.555Z,51.40
2024-05-09T02:09:24.485Z,48.80
2024-05-09T02:10:31.724Z,50.19
2024-05-09T02:11:25.587Z,48.80
2024-05-09T02:12:24.629Z,49.66
2024-05-09T02:13:24.477Z,50.85
2024-05-09T02:14:24.518Z,52.16
2024-05-09T02:15:24.436Z,46.79
2024-05-09T02:16:24.436Z,46.94
2024-05-09T02:17:24.593Z,46.91
2024-05-09T02:18:24.488Z,50.50
2024-05-09T02:19:24.710Z,52.45
2024-05-09T02:20:33.127Z,48.13
2024-05-09T02:21:26.403Z,47.53
2024-05-09T02:22:24.397Z,47.92
2024-05-09T02:23:24.467Z,47.36
2024-05-09T02:24:24.521Z,50.47
2024-05-09T02:25:24.369Z,53.06
2024-05-09T02:26:24.410Z,48.89
2024-05-09T02:27:24.360Z,48.52
2024-05-09T02:28:24.360Z,52.09
2024-05-09T02:29:24.416Z,53.20
2024-05-09T02:30:31.147Z,52.71
2024-05-09T02:31:26.333Z,52.13
2024-05-09T02:32:24.433Z,51.74
2024-05-09T02:33:24.492Z,52.13
2024-05-09T02:34:24.350Z,50.51
2024-05-09T02:35:24.368Z,47.09
2024-05-09T02:36:24.291Z,46.60
2024-05-09T02:37:24.287Z,48.48
2024-05-09T02:38:24.300Z,47.77
2024-05-09T02:39:24.291Z,49.10
2024-05-09T02:40:33.211Z,49.32
2024-05-09T02:41:26.322Z,48.90
2024-05-09T02:42:24.260Z,50.41
2024-05-09T02:43:24.259Z,52.97
2024-05-09T02:44:24.319Z,50.98
2024-05-09T02:45:24.240Z,52.69
2024-05-09T02:46:24.220Z,52.70
2024-05-09T02:47:24.351Z,50.95
2024-05-09T02:48:24.360Z,51.38
2024-05-09T02:49:24.359Z,52.55
2024-05-09T02:50:33.087Z,51.78
2024-05-09T02:51:26.189Z,53.33
2024-05-09T02:52:24.199Z,53.53
2024-05-09T02:53:24.222Z,51.38
2024-05-09T02:54:24.177Z,53.90
2024-05-09T02:55:24.172Z,52.66
2024-05-09T02:56:24.220Z,52.19
2024-05-09T02:57:24.159Z,51.84
2024-05-09T02:58:24.160Z,52.60
2024-05-09T02:59:24.256Z,51.55
2024-05-09T03:00:29.941Z,53.89
2024-05-09T03:01:26.186Z,51.80
2024-05-09T03:02:24.231Z,51.75
2024-05-09T03:03:24.692Z,54.49
2024-05-09T03:04:24.109Z,53.69
2024-05-09T03:05:24.152Z,55.10
2024-05-09T03:06:24.122Z,55.54
2024-05-09T03:07:24.096Z,55.42
2024-05-09T03:08:24.108Z,53.40
2024-05-09T03:09:24.128Z,55.10
2024-05-09T03:10:28.507Z,54.34
2024-05-09T03:11:26.215Z,55.81
2024-05-09T03:12:24.131Z,55.38
2024-05-09T03:13:24.064Z,55.85
2024-05-09T03:14:24.152Z,54.70
2024-05-09T03:15:24.030Z,55.13
2024-05-09T03:16:24.034Z,54.96
2024-05-09T03:17:24.535Z,55.58
2024-05-09T03:18:24.079Z,53.64
2024-05-09T03:19:24.107Z,54.32
2024-05-09T03:20:27.778Z,54.13
2024-05-09T03:21:25.002Z,55.90
2024-05-09T03:22:24.003Z,54.89
2024-05-09T03:23:24.036Z,54.99
2024-05-09T03:24:23.998Z,56.59
2024-05-09T03:25:23.960Z,57.38
2024-05-09T03:26:23.988Z,51.76
2024-05-09T03:27:23.973Z,55.69
2024-05-09T03:28:23.934Z,55.56
2024-05-09T03:29:24.059Z,55.28
2024-05-09T03:30:31.146Z,53.08
2024-05-09T03:31:25.923Z,54.05
2024-05-09T03:32:24.116Z,54.84
2024-05-09T03:33:24.214Z,55.24
2024-05-09T03:34:23.946Z,56.17
2024-05-09T03:35:24.033Z,56.13
2024-05-09T03:36:23.892Z,54.29
2024-05-09T03:37:23.886Z,57.10
2024-05-09T03:38:23.945Z,57.00
2024-05-09T03:39:23.862Z,55.90
2024-05-09T03:40:26.692Z,56.48
2024-05-09T03:41:25.928Z,57.29
2024-05-09T03:42:23.863Z,55.11
2024-05-09T03:43:23.848Z,56.42
2024-05-09T03:44:23.858Z,55.05
2024-05-09T03:45:23.856Z,56.08
2024-05-09T03:46:23.822Z,53.13
2024-05-09T03:47:24.024Z,53.64
2024-05-09T03:48:23.954Z,54.22
2024-05-09T03:49:24.141Z,54.87
2024-05-09T03:50:30.128Z,54.50
2024-05-09T03:51:25.780Z,54.45
2024-05-09T03:52:23.782Z,55.83
2024-05-09T03:53:23.789Z,55.50
2024-05-09T03:54:23.775Z,54.00
2024-05-09T03:55:23.762Z,51.64
2024-05-09T03:56:23.839Z,54.61
2024-05-09T03:57:23.744Z,54.68
2024-05-09T03:58:23.756Z,54.14
2024-05-09T03:59:23.776Z,53.91
2024-05-09T04:00:31.176Z,55.30
2024-05-09T04:01:24.833Z,54.08
2024-05-09T04:02:23.834Z,55.49
2024-05-09T04:03:23.815Z,53.58
2024-05-09T04:04:23.835Z,53.43
2024-05-09T04:05:23.723Z,52.96
2024-05-09T04:06:56.101Z,54.62
2024-05-09T04:07:56.146Z,53.62
2024-05-09T04:08:23.693Z,52.28
2024-05-09T04:09:23.678Z,50.72
2024-05-09T04:10:30.525Z,54.81
2024-05-09T04:11:25.717Z,54.84
2024-05-09T04:12:23.670Z,54.31
2024-05-09T04:13:23.971Z,52.53
2024-05-09T04:14:23.664Z,52.23
2024-05-09T04:15:23.638Z,52.97
2024-05-09T04:16:23.624Z,53.43
2024-05-09T04:17:23.663Z,55.95
2024-05-09T04:18:23.723Z,56.00
2024-05-09T04:19:23.689Z,54.35
2024-05-09T04:20:34.254Z,55.76
2024-05-09T04:21:25.576Z,52.42
2024-05-09T04:22:23.577Z,57.54
2024-05-09T04:23:23.639Z,57.79
2024-05-09T04:24:23.565Z,54.98
2024-05-09T04:25:23.568Z,58.72
2024-05-09T04:26:23.604Z,58.37
2024-05-09T04:27:23.536Z,57.75
2024-05-09T04:28:23.531Z,57.29
2024-05-09T04:29:23.629Z,52.69
2024-05-09T04:30:33.940Z,55.42
2024-05-09T04:31:25.517Z,56.22
2024-05-09T04:32:23.619Z,57.98
2024-05-09T04:33:23.762Z,57.86
2024-05-09T04:34:23.563Z,57.99
2024-05-09T04:35:23.605Z,57.98
2024-05-09T04:36:23.474Z,58.62
2024-05-09T04:37:23.463Z,56.59
2024-05-09T04:38:23.641Z,59.50
2024-05-09T04:39:23.465Z,57.22
2024-05-09T04:40:30.810Z,58.74
2024-05-09T04:41:25.519Z,59.50
2024-05-09T04:42:23.440Z,58.77
2024-05-09T04:43:23.441Z,58.90
2024-05-09T04:44:23.430Z,61.17
2024-05-09T04:45:23.407Z,59.88
2024-05-09T04:46:23.406Z,59.15
2024-05-09T04:47:23.510Z,57.11
2024-05-09T04:48:23.524Z,58.83
2024-05-09T04:49:23.530Z,57.37
2024-05-09T04:50:30.361Z,57.24
2024-05-09T04:51:25.388Z,58.28
2024-05-09T04:52:23.367Z,57.63
2024-05-09T04:53:23.503Z,57.09
2024-05-09T04:54:33.521Z,55.67
2024-05-09T04:55:25.375Z,55.48
2024-05-09T04:56:23.405Z,54.91
2024-05-09T04:57:23.330Z,52.37
2024-05-09T04:58:23.348Z,52.80
2024-05-09T04:59:23.375Z,51.96
2024-05-09T05:00:31.981Z,52.57
2024-05-09T05:01:25.416Z,57.30
2024-05-09T05:02:23.416Z,53.28
2024-05-09T05:03:23.457Z,53.14
2024-05-09T05:04:23.309Z,51.39
2024-05-09T05:05:23.322Z,51.96
2024-05-09T05:06:23.282Z,51.16
2024-05-09T05:07:23.361Z,51.78
2024-05-09T05:08:23.323Z,52.71
2024-05-09T05:09:23.244Z,51.86
2024-05-09T05:10:32.910Z,52.37
2024-05-09T05:11:25.347Z,51.59
2024-05-09T05:12:23.388Z,53.67
2024-05-09T05:13:24.130Z,51.42
2024-05-09T05:14:23.309Z,52.15
2024-05-09T05:15:23.213Z,53.31
2024-05-09T05:16:23.224Z,51.85
2024-05-09T05:17:23.914Z,50.87
2024-05-09T05:18:23.354Z,52.80
2024-05-09T05:19:23.294Z,51.69
2024-05-09T05:20:30.434Z,50.48
2024-05-09T05:21:25.273Z,53.15
2024-05-09T05:22:23.173Z,52.26
2024-05-09T05:23:23.566Z,53.14
2024-05-09T05:24:23.154Z,52.40
2024-05-09T05:25:55.987Z,53.35
2024-05-09T05:26:23.237Z,54.00
2024-05-09T05:27:23.123Z,51.24
2024-05-09T05:28:23.214Z,52.23
2024-05-09T05:29:23.145Z,52.15
2024-05-09T05:30:28.982Z,51.30
2024-05-09T05:31:25.161Z,50.53
2024-05-09T05:32:23.205Z,51.90
2024-05-09T05:33:23.606Z,51.51
2024-05-09T05:34:23.111Z,51.91
2024-05-09T05:35:23.220Z,52.81
2024-05-09T05:36:23.071Z,51.23
2024-05-09T05:37:23.077Z,53.35
2024-05-09T05:38:26.257Z,52.79
2024-05-09T05:39:25.046Z,54.18
2024-05-09T05:40:32.133Z,51.18
2024-05-09T05:41:25.048Z,52.43
2024-05-09T05:42:23.056Z,49.85
2024-05-09T05:43:23.022Z,51.93
2024-05-09T05:44:23.048Z,53.09
2024-05-09T05:45:23.011Z,49.74
2024-05-09T05:46:22.998Z,52.85
2024-05-09T05:47:23.094Z,51.40
2024-05-09T05:48:23.255Z,48.51
2024-05-09T05:49:23.191Z,51.48
2024-05-09T05:50:28.035Z,50.42
2024-05-09T05:51:25.006Z,53.24
2024-05-09T05:52:22.961Z,52.76
2024-05-09T05:53:23.000Z,52.20
2024-05-09T05:54:24.412Z,51.71
2024-05-09T05:55:23.951Z,52.72
2024-05-09T05:56:23.008Z,51.62
2024-05-09T05:57:22.937Z,51.66
2024-05-09T05:58:22.966Z,52.18
2024-05-09T05:59:22.963Z,50.30
2024-05-09T06:00:29.512Z,51.69
2024-05-09T06:01:24.926Z,52.38
2024-05-09T06:02:23.038Z,52.34
2024-05-09T06:03:22.987Z,51.27
2024-05-09T06:04:22.910Z,50.10
2024-05-09T06:05:23.845Z,52.54
2024-05-09T06:06:22.871Z,51.78
2024-05-09T06:07:22.954Z,51.34
2024-05-09T06:08:23.727Z,53.10
2024-05-09T06:09:22.940Z,49.23
2024-05-09T06:10:26.369Z,51.61
2024-05-09T06:11:24.979Z,49.09
2024-05-09T06:12:22.976Z,53.33
2024-05-09T06:13:22.822Z,52.34
2024-05-09T06:14:22.938Z,52.63
2024-05-09T06:15:22.922Z,51.65
2024-05-09T06:16:22.798Z,53.23
2024-05-09T06:17:23.110Z,51.27
2024-05-09T06:18:23.010Z,52.82
2024-05-09T06:19:22.909Z,53.62
2024-05-09T06:20:27.846Z,52.97
2024-05-09T06:21:24.947Z,52.69
2024-05-09T06:22:22.765Z,51.66
2024-05-09T06:23:22.859Z,54.42
2024-05-09T06:24:22.731Z,53.51
2024-05-09T06:25:22.731Z,52.11
2024-05-09T06:26:22.759Z,51.81
2024-05-09T06:27:22.717Z,50.47
2024-05-09T06:28:22.737Z,50.93
2024-05-09T06:29:22.713Z,51.36
2024-05-09T06:30:30.083Z,51.06
2024-05-09T06:31:24.689Z,50.99
2024-05-09T06:32:22.815Z,50.82
2024-05-09T06:33:22.847Z,49.62
2024-05-09T06:34:23.018Z,50.37
2024-05-09T06:35:22.876Z,55.38
2024-05-09T06:36:22.999Z,53.15
2024-05-09T06:37:22.652Z,52.78
2024-05-09T06:38:22.663Z,51.44
2024-05-09T06:39:22.696Z,50.23
2024-05-09T06:40:25.917Z,53.16
2024-05-09T06:41:24.761Z,51.67
2024-05-09T06:42:22.767Z,50.89
2024-05-09T06:43:22.619Z,52.53
2024-05-09T06:44:22.717Z,51.44
2024-05-09T06:45:22.627Z,51.70
2024-05-09T06:46:22.608Z,51.39
2024-05-09T06:47:22.668Z,53.64
2024-05-09T06:48:23.061Z,51.58
2024-05-09T06:49:22.770Z,53.77
2024-05-09T06:50:24.513Z,51.76
2024-05-09T06:51:24.642Z,53.38
2024-05-09T06:52:22.559Z,51.25
2024-05-09T06:53:22.644Z,50.35
2024-05-09T06:54:22.526Z,52.09
2024-05-09T06:55:22.542Z,51.63
2024-05-09T06:56:22.841Z,49.77
2024-05-09T06:57:22.528Z,51.44
2024-05-09T06:58:22.504Z,52.29
2024-05-09T06:59:22.729Z,52.48
2024-05-09T07:00:30.283Z,51.31
2024-05-09T07:01:24.551Z,52.93
2024-05-09T07:02:22.707Z,54.68
2024-05-09T07:03:22.587Z,50.82
2024-05-09T07:04:22.537Z,51.26
2024-05-09T07:05:22.626Z,49.70
2024-05-09T07:06:22.510Z,51.30
2024-05-09T07:07:22.500Z,51.61
2024-05-09T07:08:22.522Z,52.45
2024-05-09T07:09:22.420Z,52.17
2024-05-09T07:10:28.894Z,51.50
2024-05-09T07:11:23.593Z,51.73
2024-05-09T07:12:22.443Z,50.08
2024-05-09T07:13:22.415Z,50.82
2024-05-09T07:14:22.623Z,51.70
2024-05-09T07:15:22.483Z,51.44
2024-05-09T07:16:22.380Z,51.27
2024-05-09T07:17:22.612Z,50.34
2024-05-09T07:18:22.784Z,51.35
2024-05-09T07:19:22.436Z,51.37
2024-05-09T07:20:31.603Z,49.65
2024-05-09T07:21:24.455Z,48.92
2024-05-09T07:22:22.448Z,51.60
2024-05-09T07:23:22.436Z,51.42
2024-05-09T07:24:22.347Z,51.36
2024-05-09T07:25:22.598Z,51.39
2024-05-09T07:26:22.496Z,50.91
2024-05-09T07:27:22.303Z,52.07
2024-05-09T07:28:22.337Z,53.53
2024-05-09T07:29:22.548Z,52.38
2024-05-09T07:30:27.616Z,52.85
2024-05-09T07:31:24.297Z,51.28
2024-05-09T07:32:22.497Z,51.29
2024-05-09T07:33:23.784Z,52.98
2024-05-09T07:34:22.498Z,50.57
2024-05-09T07:35:22.306Z,51.20
2024-05-09T07:36:22.253Z,53.58
2024-05-09T07:37:22.957Z,50.82
2024-05-09T07:38:22.323Z,50.91
2024-05-09T07:39:22.347Z,52.64
2024-05-09T07:40:31.797Z,50.45
2024-05-09T07:41:24.304Z,51.40
2024-05-09T07:42:22.209Z,54.18
2024-05-09T07:43:22.279Z,52.22
2024-05-09T07:44:22.229Z,52.72
2024-05-09T07:45:40.544Z,52.68
2024-05-09T07:47:17.255Z,53.42
2024-05-09T07:48:56.802Z,50.00
2024-05-09T07:53:30.319Z,51.99
2024-05-09T07:54:23.429Z,50.77
2024-05-09T07:55:22.207Z,52.35
2024-05-09T07:56:23.597Z,51.47
2024-05-09T07:57:22.132Z,49.72
2024-05-09T07:58:22.088Z,50.45
2024-05-09T07:59:22.139Z,52.03
2024-05-09T08:00:29.663Z,50.39
2024-05-09T08:01:24.126Z,50.25
2024-05-09T08:02:22.317Z,50.93
2024-05-09T08:03:22.161Z,50.69
2024-05-09T08:04:23.062Z,49.90
2024-05-09T08:05:22.106Z,50.61
2024-05-09T08:06:22.038Z,51.22
2024-05-09T08:07:22.085Z,49.65
2024-05-09T08:08:22.025Z,50.03
2024-05-09T08:09:22.049Z,49.85
2024-05-09T08:10:27.149Z,48.87
2024-05-09T08:11:23.008Z,50.63
2024-05-09T08:12:22.007Z,51.03
2024-05-09T08:13:22.159Z,50.64
2024-05-09T08:14:21.977Z,49.06
2024-05-09T08:15:21.962Z,49.73
2024-05-09T08:16:22.087Z,50.95
2024-05-09T08:17:22.120Z,50.71
2024-05-09T08:18:22.102Z,50.68
2024-05-09T08:19:22.061Z,47.26
2024-05-09T08:20:30.293Z,50.31
2024-05-09T08:21:23.983Z,49.55
2024-05-09T08:22:22.014Z,49.68
2024-05-09T08:23:21.908Z,47.02
2024-05-09T08:24:22.542Z,47.68
2024-05-09T08:25:21.948Z,50.90
2024-05-09T08:26:21.888Z,51.83
2024-05-09T08:27:21.934Z,50.32
2024-05-09T08:28:21.995Z,49.04
2024-05-09T08:29:21.880Z,48.37
2024-05-09T08:30:29.570Z,49.61
2024-05-09T08:31:24.005Z,51.30
2024-05-09T08:32:21.925Z,50.78
2024-05-09T08:33:21.906Z,49.45
2024-05-09T08:34:21.932Z,51.31
2024-05-09T08:35:21.830Z,50.53
2024-05-09T08:36:21.859Z,47.11
2024-05-09T08:37:24.690Z,51.89
2024-05-09T08:38:22.827Z,49.95
2024-05-09T08:39:22.481Z,52.12
2024-05-09T08:40:30.588Z,50.21
2024-05-09T08:41:23.939Z,50.17
2024-05-09T08:42:21.808Z,49.59
2024-05-09T08:43:21.815Z,49.60
2024-05-09T08:44:21.777Z,49.36
2024-05-09T08:45:21.775Z,47.48
2024-05-09T08:46:21.893Z,48.28
2024-05-09T08:47:21.913Z,52.92
2024-05-09T08:48:21.966Z,48.52
2024-05-09T08:49:21.841Z,47.76
2024-05-09T08:50:31.576Z,48.25
2024-05-09T08:51:23.719Z,52.05
2024-05-09T08:52:21.724Z,52.93
2024-05-09T08:53:21.785Z,53.79
2024-05-09T08:54:21.698Z,54.64
2024-05-09T08:55:21.707Z,56.38
2024-05-09T08:56:21.680Z,55.88
2024-05-09T08:57:21.690Z,57.17
2024-05-09T08:58:21.755Z,55.91
2024-05-09T08:59:21.671Z,58.78
2024-05-09T09:00:29.694Z,51.01
2024-05-09T09:01:23.783Z,47.16
2024-05-09T09:02:21.846Z,46.27
2024-05-09T09:03:21.767Z,48.49
2024-05-09T09:04:21.788Z,47.41
2024-05-09T09:05:21.739Z,49.52
2024-05-09T09:06:21.628Z,49.42
2024-05-09T09:07:21.661Z,48.54
2024-05-09T09:08:21.622Z,48.25
2024-05-09T09:09:21.619Z,48.01
2024-05-09T09:10:29.283Z,47.00
2024-05-09T09:11:22.642Z,47.62
2024-05-09T09:12:21.586Z,48.70
2024-05-09T09:13:21.664Z,47.80
2024-05-09T09:14:21.576Z,45.80
2024-05-09T09:15:21.573Z,53.83
2024-05-09T09:16:21.636Z,49.35
2024-05-09T09:17:21.601Z,46.15
2024-05-09T09:18:21.619Z,46.34
2024-05-09T09:19:21.665Z,45.46
2024-05-09T09:20:26.551Z,44.92
2024-05-09T09:21:23.565Z,46.39
2024-05-09T09:22:21.618Z,44.85
2024-05-09T09:23:21.529Z,45.85
2024-05-09T09:24:21.517Z,45.27
2024-05-09T09:25:21.503Z,45.74
2024-05-09T09:26:21.525Z,43.64
2024-05-09T09:27:21.498Z,44.25
2024-05-09T09:28:21.529Z,44.69
2024-05-09T09:29:21.497Z,41.65
2024-05-09T09:30:34.016Z,44.30
2024-05-09T09:31:23.568Z,45.00
2024-05-09T09:32:21.508Z,46.18
2024-05-09T09:33:21.506Z,44.61
2024-05-09T09:34:21.580Z,43.63
2024-05-09T09:35:21.466Z,44.36
2024-05-09T09:36:21.457Z,47.04
2024-05-09T09:37:21.500Z,44.87
2024-05-09T09:38:21.433Z,44.33
2024-05-09T09:39:21.429Z,43.35
2024-05-09T09:40:22.269Z,43.72
2024-05-09T09:41:22.424Z,41.79
2024-05-09T09:42:21.426Z,43.32
2024-05-09T09:43:21.990Z,44.47
2024-05-09T09:44:21.394Z,46.05
2024-05-09T09:45:21.429Z,45.09
2024-05-09T09:46:21.404Z,43.52
2024-05-09T09:47:21.429Z,41.98
2024-05-09T09:48:21.627Z,45.12
2024-05-09T09:49:21.408Z,44.71
2024-05-09T09:50:27.700Z,45.51
2024-05-09T09:51:22.367Z,41.69
2024-05-09T09:52:21.519Z,44.56
2024-05-09T09:53:21.375Z,45.27
2024-05-09T09:54:21.344Z,43.66
2024-05-09T09:55:21.423Z,42.16
2024-05-09T09:56:21.316Z,44.67
2024-05-09T09:57:21.346Z,46.23
2024-05-09T09:58:21.492Z,43.67
2024-05-09T09:59:21.305Z,43.40
2024-05-09T10:00:27.080Z,43.28
2024-05-09T10:01:22.475Z,46.33
2024-05-09T10:02:21.615Z,46.57
2024-05-09T10:03:21.553Z,46.33
2024-05-09T10:04:21.359Z,45.37
2024-05-09T10:05:21.412Z,48.51
2024-05-09T10:06:21.302Z,47.00
2024-05-09T10:07:21.369Z,45.93
2024-05-09T10:08:21.304Z,47.63
2024-05-09T10:09:21.303Z,46.36
2024-05-09T10:10:27.368Z,46.37
2024-05-09T10:11:23.283Z,45.13
2024-05-09T10:12:21.300Z,44.88
2024-05-09T10:13:21.371Z,43.28
2024-05-09T10:14:21.224Z,43.27
2024-05-09T10:15:21.266Z,42.93
2024-05-09T10:16:21.390Z,45.39
2024-05-09T10:17:21.218Z,43.86
2024-05-09T10:18:21.305Z,43.15
2024-05-09T10:19:21.233Z,45.41
2024-05-09T10:20:25.031Z,44.67
2024-05-09T10:21:23.183Z,44.93
2024-05-09T10:22:21.194Z,45.50
2024-05-09T10:23:21.354Z,47.65
2024-05-09T10:24:21.155Z,48.53
2024-05-09T10:25:21.343Z,48.01
2024-05-09T10:26:21.337Z,44.82
2024-05-09T10:27:21.142Z,45.26
2024-05-09T10:28:21.324Z,45.20
2024-05-09T10:29:21.155Z,45.28
2024-05-09T10:30:26.138Z,44.67
2024-05-09T10:31:23.188Z,46.60
2024-05-09T10:32:21.193Z,47.79
2024-05-09T10:33:21.214Z,45.89
2024-05-09T10:34:21.511Z,46.25
2024-05-09T10:35:21.152Z,47.29
2024-05-09T10:36:21.143Z,46.34
2024-05-09T10:37:21.193Z,46.22
2024-05-09T10:38:21.090Z,45.80
2024-05-09T10:39:21.167Z,45.69
2024-05-09T10:41:21.071Z,48.42
2024-05-09T10:42:21.070Z,47.59
2024-05-09T10:43:21.284Z,48.36
2024-05-09T10:44:21.062Z,46.54
2024-05-09T10:45:21.139Z,45.77
2024-05-09T10:46:21.621Z,44.91
2024-05-09T10:47:21.175Z,45.96
2024-05-09T10:48:21.152Z,47.26
2024-05-09T10:49:21.281Z,46.13
2024-05-09T10:50:28.098Z,44.97
2024-05-09T10:51:23.075Z,44.57
2024-05-09T10:52:21.136Z,45.71
2024-05-09T10:53:21.076Z,46.41
2024-05-09T10:54:21.029Z,44.30
2024-05-09T10:55:21.245Z,44.97
2024-05-09T10:56:21.033Z,46.27
2024-05-09T10:57:20.992Z,46.14
2024-05-09T10:58:21.019Z,43.90
2024-05-09T10:59:21.017Z,43.93
2024-05-09T11:00:27.618Z,42.80
2024-05-09T11:01:23.130Z,44.83
2024-05-09T11:02:21.274Z,44.69
2024-05-09T11:03:21.019Z,44.91
2024-05-09T11:04:21.138Z,42.90
2024-05-09T11:05:21.136Z,45.92
2024-05-09T11:06:20.976Z,46.03
2024-05-09T11:07:21.104Z,47.48
2024-05-09T11:08:20.923Z,45.43
2024-05-09T11:09:20.922Z,43.55
2024-05-09T11:10:27.659Z,44.23
2024-05-09T11:11:23.000Z,44.36
2024-05-09T11:12:22.817Z,45.47
2024-05-09T11:13:21.963Z,44.63
2024-05-09T11:14:20.880Z,44.34
2024-05-09T11:15:20.892Z,44.04
2024-05-09T11:16:21.428Z,44.57
2024-05-09T11:17:21.026Z,45.38
2024-05-09T11:18:24.277Z,45.60
2024-05-09T11:19:21.038Z,44.62
2024-05-09T11:20:26.934Z,45.63
2024-05-09T11:21:21.856Z,48.95
2024-05-09T11:22:20.865Z,48.39
2024-05-09T11:23:20.832Z,45.35
2024-05-09T11:24:20.841Z,45.02
2024-05-09T11:25:20.852Z,44.86
2024-05-09T11:26:20.874Z,46.25
2024-05-09T11:27:20.824Z,44.65
2024-05-09T11:28:20.911Z,43.99
2024-05-09T11:29:20.864Z,42.24
2024-05-09T11:30:26.822Z,46.66
2024-05-09T11:31:23.254Z,45.84
2024-05-09T11:32:20.843Z,47.05
2024-05-09T11:33:20.795Z,47.72
2024-05-09T11:34:20.793Z,45.94
2024-05-09T11:35:20.774Z,46.21
2024-05-09T11:36:20.752Z,46.36
2024-05-09T11:37:20.861Z,47.50
2024-05-09T11:38:20.768Z,46.57
2024-05-09T11:39:20.749Z,46.51
2024-05-09T11:40:25.439Z,45.37
2024-05-09T11:41:22.731Z,47.71
2024-05-09T11:42:20.731Z,44.26
2024-05-09T11:43:20.843Z,46.05
2024-05-09T11:44:20.704Z,46.03
2024-05-09T11:45:20.704Z,46.13
2024-05-09T11:46:20.790Z,47.97
2024-05-09T11:47:20.736Z,47.06
2024-05-09T11:48:20.961Z,49.28
2024-05-09T11:49:22.006Z,46.18
2024-05-09T11:50:27.182Z,46.44
2024-05-09T11:51:22.668Z,47.30
2024-05-09T11:52:20.720Z,47.87
2024-05-09T11:53:20.664Z,48.08
2024-05-09T11:54:20.675Z,45.68
2024-05-09T11:55:22.040Z,47.98
2024-05-09T11:56:20.658Z,46.76
2024-05-09T11:57:20.635Z,45.73
2024-05-09T11:58:20.759Z,47.39
2024-05-09T11:59:20.629Z,47.46
2024-05-09T12:00:29.186Z,47.23
2024-05-09T12:01:25.080Z,48.62
2024-05-09T12:02:20.830Z,45.24
2024-05-09T12:03:20.659Z,45.09
2024-05-09T12:04:20.791Z,47.47
2024-05-09T12:05:20.938Z,47.35
2024-05-09T12:06:20.586Z,47.32
2024-05-09T12:07:20.606Z,47.14
2024-05-09T12:08:20.585Z,48.26
2024-05-09T12:09:20.564Z,47.19
2024-05-09T12:10:26.031Z,47.91
2024-05-09T12:11:21.563Z,47.45
2024-05-09T12:12:20.548Z,47.82
2024-05-09T12:13:20.664Z,47.33
2024-05-09T12:14:20.543Z,46.81
2024-05-09T12:15:20.529Z,45.70
2024-05-09T12:16:20.748Z,46.65
2024-05-09T12:17:20.643Z,46.51
2024-05-09T12:18:20.540Z,46.81
2024-05-09T12:19:20.502Z,44.48
2024-05-09T12:20:28.554Z,48.61
2024-05-09T12:21:22.496Z,47.57
2024-05-09T12:22:20.501Z,48.47
2024-05-09T12:23:20.470Z,48.33
2024-05-09T12:24:20.469Z,48.11
2024-05-09T12:25:20.516Z,49.26
2024-05-09T12:26:20.466Z,46.06
2024-05-09T12:27:20.446Z,47.38
2024-05-09T12:28:20.605Z,47.48
2024-05-09T12:29:20.435Z,46.28
2024-05-09T12:30:32.422Z,47.90
2024-05-09T12:31:22.486Z,49.79
2024-05-09T12:32:20.481Z,47.55
2024-05-09T12:33:20.470Z,47.22
2024-05-09T12:34:20.527Z,46.62
2024-05-09T12:35:20.404Z,46.40
2024-05-09T12:36:20.383Z,48.17
2024-05-09T12:37:20.415Z,51.39
2024-05-09T12:38:20.367Z,53.13
2024-05-09T12:39:20.372Z,51.81
2024-05-09T12:40:30.662Z,51.26
2024-05-09T12:41:22.363Z,53.39
2024-05-09T12:42:27.146Z,51.14
2024-05-09T12:43:22.642Z,52.63
2024-05-09T12:44:20.338Z,52.95
2024-05-09T12:45:20.355Z,53.72
2024-05-09T12:46:20.388Z,54.70
2024-05-09T12:47:20.364Z,52.56
2024-05-09T12:48:20.376Z,51.75
2024-05-09T12:49:20.648Z,51.30
2024-05-09T12:50:29.134Z,50.74
2024-05-09T12:51:22.291Z,50.25
2024-05-09T12:52:20.321Z,49.48
2024-05-09T12:53:20.324Z,49.09
2024-05-09T12:54:20.274Z,49.00
2024-05-09T12:55:20.317Z,49.32
2024-05-09T12:56:20.257Z,48.12
2024-05-09T12:57:20.254Z,49.18
2024-05-09T12:58:20.314Z,50.08